sensor_id;sensor_type;location;lat;lon;timestamp;pressure;altitude;pressure_sealevel;temperature;humidity
51147;BME280;37207;53.060;18.726;2023-03-21T00:35:06;100586.74;;;7.54;91.28
51147;BME280;37207;53.060;18.726;2023-03-21T00:37:32;100590.77;;;7.56;91.20
51147;BME280;37207;53.060;18.726;2023-03-21T00:39:58;100587.75;;;7.57;91.19
51147;BME280;37207;53.060;18.726;2023-03-21T00:42:24;100585.00;;;7.57;91.14
51147;BME280;37207;53.060;18.726;2023-03-21T00:44:51;100586.02;;;7.57;90.96
51147;BME280;37207;53.060;18.726;2023-03-21T00:47:16;100582.31;;;7.57;91.12
51147;BME280;37207;53.060;18.726;2023-03-21T00:49:42;100585.48;;;7.58;91.25
51147;BME280;37207;53.060;18.726;2023-03-21T00:52:09;100591.41;;;7.57;90.93
51147;BME280;37207;53.060;18.726;2023-03-21T00:54:36;100587.30;;;7.57;91.01
51147;BME280;37207;53.060;18.726;2023-03-21T00:57:02;100591.53;;;7.58;91.03
51147;BME280;37207;53.060;18.726;2023-03-21T00:59:30;100586.14;;;7.58;91.11
51147;BME280;37207;53.060;18.726;2023-03-21T01:01:56;100583.63;;;7.59;91.10
51147;BME280;37207;53.060;18.726;2023-03-21T01:04:26;100584.85;;;7.58;90.96
51147;BME280;37207;53.060;18.726;2023-03-21T01:06:53;100584.10;;;7.59;91.14
51147;BME280;37207;53.060;18.726;2023-03-21T01:09:21;100586.14;;;7.61;91.14
51147;BME280;37207;53.060;18.726;2023-03-21T01:11:48;100579.98;;;7.58;90.88
51147;BME280;37207;53.060;18.726;2023-03-21T01:14:16;100582.96;;;7.55;90.90
51147;BME280;37207;53.060;18.726;2023-03-21T01:16:42;100580.61;;;7.53;90.80
51147;BME280;37207;53.060;18.726;2023-03-21T01:19:11;100582.97;;;7.53;90.86
51147;BME280;37207;53.060;18.726;2023-03-21T01:21:38;100584.86;;;7.53;90.95
51147;BME280;37207;53.060;18.726;2023-03-21T01:24:04;100583.17;;;7.54;90.93
51147;BME280;37207;53.060;18.726;2023-03-21T01:26:31;100581.86;;;7.53;90.81
51147;BME280;37207;53.060;18.726;2023-03-21T01:28:58;100584.31;;;7.51;90.84
51147;BME280;37207;53.060;18.726;2023-03-21T01:31:24;100582.09;;;7.50;90.90
51147;BME280;37207;53.060;18.726;2023-03-21T01:33:50;100581.23;;;7.50;90.91
51147;BME280;37207;53.060;18.726;2023-03-21T01:36:19;100573.27;;;7.49;90.88
51147;BME280;37207;53.060;18.726;2023-03-21T01:38:48;100579.49;;;7.50;90.93
51147;BME280;37207;53.060;18.726;2023-03-21T01:41:20;100580.96;;;7.51;91.02
51147;BME280;37207;53.060;18.726;2023-03-21T01:43:49;100576.10;;;7.52;91.07
51147;BME280;37207;53.060;18.726;2023-03-21T01:46:33;100572.27;;;7.53;90.87
51147;BME280;37207;53.060;18.726;2023-03-21T01:49:17;100569.19;;;7.52;90.67
51147;BME280;37207;53.060;18.726;2023-03-21T01:51:55;100573.20;;;7.50;90.76
51147;BME280;37207;53.060;18.726;2023-03-21T01:54:26;100575.38;;;7.47;90.57
51147;BME280;37207;53.060;18.726;2023-03-21T01:56:55;100578.14;;;7.43;90.59
51147;BME280;37207;53.060;18.726;2023-03-21T01:59:29;100577.31;;;7.42;90.69
51147;BME280;37207;53.060;18.726;2023-03-21T02:02:20;100578.80;;;7.42;90.75
51147;BME280;37207;53.060;18.726;2023-03-21T02:05:01;100579.02;;;7.41;90.82
51147;BME280;37207;53.060;18.726;2023-03-21T02:07:34;100575.23;;;7.39;90.77
51147;BME280;37207;53.060;18.726;2023-03-21T02:10:06;100576.06;;;7.38;90.56
51147;BME280;37207;53.060;18.726;2023-03-21T02:12:34;100577.20;;;7.38;90.54
51147;BME280;37207;53.060;18.726;2023-03-21T02:15:00;100577.35;;;7.38;90.65
51147;BME280;37207;53.060;18.726;2023-03-21T02:17:53;100578.64;;;7.35;90.88
51147;BME280;37207;53.060;18.726;2023-03-21T02:20:56;100580.05;;;7.33;90.66
51147;BME280;37207;53.060;18.726;2023-03-21T02:37:33;100583.09;;;7.22;90.94
51147;BME280;37207;53.060;18.726;2023-03-21T02:40:11;100583.52;;;7.19;90.68
51147;BME280;37207;53.060;18.726;2023-03-21T02:45:25;100584.07;;;7.16;91.07
51147;BME280;37207;53.060;18.726;2023-03-21T02:48:00;100591.00;;;7.12;90.97
51147;BME280;37207;53.060;18.726;2023-03-21T02:50:48;100587.06;;;7.09;91.17
51147;BME280;37207;53.060;18.726;2023-03-21T02:53:19;100590.64;;;7.06;91.14
51147;BME280;37207;53.060;18.726;2023-03-21T02:55:48;100588.92;;;7.04;91.38
51147;BME280;37207;53.060;18.726;2023-03-21T02:58:18;100589.33;;;7.04;91.49
51147;BME280;37207;53.060;18.726;2023-03-21T03:00:51;100584.63;;;7.04;91.46
51147;BME280;37207;53.060;18.726;2023-03-21T03:03:35;100584.38;;;7.04;91.51
51147;BME280;37207;53.060;18.726;2023-03-21T03:06:16;100579.31;;;7.05;91.50
51147;BME280;37207;53.060;18.726;2023-03-21T03:09:29;100581.73;;;7.06;91.49
51147;BME280;37207;53.060;18.726;2023-03-21T03:11:50;100582.19;;;7.08;91.77
51147;BME280;37207;53.060;18.726;2023-03-21T03:20:21;100575.52;;;7.12;91.63
51147;BME280;37207;53.060;18.726;2023-03-21T03:23:06;100574.70;;;7.15;91.86
51147;BME280;37207;53.060;18.726;2023-03-21T03:25:57;100574.98;;;7.16;91.79
51147;BME280;37207;53.060;18.726;2023-03-21T03:28:30;100576.34;;;7.16;91.69
51147;BME280;37207;53.060;18.726;2023-03-21T03:30:58;100576.83;;;7.20;91.78
51147;BME280;37207;53.060;18.726;2023-03-21T03:33:26;100579.42;;;7.21;91.75
51147;BME280;37207;53.060;18.726;2023-03-21T03:35:55;100574.91;;;7.22;91.63
51147;BME280;37207;53.060;18.726;2023-03-21T03:38:24;100569.28;;;7.22;91.74
51147;BME280;37207;53.060;18.726;2023-03-21T03:41:00;100568.86;;;7.21;91.48
51147;BME280;37207;53.060;18.726;2023-03-21T03:43:45;100574.60;;;7.22;91.76
51147;BME280;37207;53.060;18.726;2023-03-21T03:46:18;100575.77;;;7.21;91.55
51147;BME280;37207;53.060;18.726;2023-03-21T03:48:51;100580.55;;;7.17;91.45
51147;BME280;37207;53.060;18.726;2023-03-21T03:51:27;100581.32;;;7.14;91.41
51147;BME280;37207;53.060;18.726;2023-03-21T03:54:20;100581.05;;;7.13;91.55
51147;BME280;37207;53.060;18.726;2023-03-21T03:56:48;100584.17;;;7.12;91.65
51147;BME280;37207;53.060;18.726;2023-03-21T03:59:15;100579.13;;;7.12;91.63
51147;BME280;37207;53.060;18.726;2023-03-21T04:01:57;100583.73;;;7.11;91.61
51147;BME280;37207;53.060;18.726;2023-03-21T04:04:23;100582.81;;;7.09;91.61
51147;BME280;37207;53.060;18.726;2023-03-21T04:06:54;100587.03;;;7.08;91.67
51147;BME280;37207;53.060;18.726;2023-03-21T04:09:22;100587.03;;;7.06;91.68
51147;BME280;37207;53.060;18.726;2023-03-21T04:11:48;100586.67;;;7.04;91.70
51147;BME280;37207;53.060;18.726;2023-03-21T04:14:14;100586.06;;;7.01;91.46
51147;BME280;37207;53.060;18.726;2023-03-21T04:16:40;100587.86;;;7.00;91.65
51147;BME280;37207;53.060;18.726;2023-03-21T04:19:06;100585.64;;;6.97;91.76
51147;BME280;37207;53.060;18.726;2023-03-21T04:21:32;100585.45;;;6.94;91.64
51147;BME280;37207;53.060;18.726;2023-03-21T04:23:58;100584.18;;;6.92;91.83
51147;BME280;37207;53.060;18.726;2023-03-21T04:26:25;100581.13;;;6.91;91.86
51147;BME280;37207;53.060;18.726;2023-03-21T04:29:27;100586.98;;;6.90;91.96
51147;BME280;37207;53.060;18.726;2023-03-21T04:32:03;100587.98;;;6.88;91.89
51147;BME280;37207;53.060;18.726;2023-03-21T04:34:29;100589.14;;;6.87;92.07
51147;BME280;37207;53.060;18.726;2023-03-21T04:36:57;100597.20;;;6.86;92.00
51147;BME280;37207;53.060;18.726;2023-03-21T04:39:23;100593.41;;;6.85;91.99
51147;BME280;37207;53.060;18.726;2023-03-21T04:41:49;100592.69;;;6.83;92.02
51147;BME280;37207;53.060;18.726;2023-03-21T04:44:16;100591.31;;;6.80;91.98
51147;BME280;37207;53.060;18.726;2023-03-21T04:46:43;100601.77;;;6.78;92.05
51147;BME280;37207;53.060;18.726;2023-03-21T04:49:10;100604.83;;;6.76;91.99
51147;BME280;37207;53.060;18.726;2023-03-21T04:51:36;100609.09;;;6.76;92.08
51147;BME280;37207;53.060;18.726;2023-03-21T04:54:02;100606.98;;;6.74;92.25
51147;BME280;37207;53.060;18.726;2023-03-21T04:56:30;100609.45;;;6.71;92.29
51147;BME280;37207;53.060;18.726;2023-03-21T04:59:08;100605.60;;;6.70;92.36
51147;BME280;37207;53.060;18.726;2023-03-21T05:01:34;100608.43;;;6.69;92.37
51147;BME280;37207;53.060;18.726;2023-03-21T05:04:03;100607.96;;;6.70;92.31
51147;BME280;37207;53.060;18.726;2023-03-21T05:06:30;100612.71;;;6.70;92.46
51147;BME280;37207;53.060;18.726;2023-03-21T05:08:57;100608.72;;;6.72;92.51
51147;BME280;37207;53.060;18.726;2023-03-21T05:11:32;100613.60;;;6.74;92.57
51147;BME280;37207;53.060;18.726;2023-03-21T05:14:00;100614.80;;;6.75;92.84
51147;BME280;37207;53.060;18.726;2023-03-21T05:16:26;100622.18;;;6.76;92.70
51147;BME280;37207;53.060;18.726;2023-03-21T05:18:56;100630.33;;;6.76;92.87
51147;BME280;37207;53.060;18.726;2023-03-21T05:21:24;100631.27;;;6.75;92.96
51147;BME280;37207;53.060;18.726;2023-03-21T05:23:55;100629.73;;;6.74;92.88
51147;BME280;37207;53.060;18.726;2023-03-21T05:26:23;100632.73;;;6.72;92.79
51147;BME280;37207;53.060;18.726;2023-03-21T05:29:04;100628.11;;;6.70;92.78
51147;BME280;37207;53.060;18.726;2023-03-21T05:31:30;100628.60;;;6.69;92.86
51147;BME280;37207;53.060;18.726;2023-03-21T05:34:04;100629.37;;;6.71;93.11
51147;BME280;37207;53.060;18.726;2023-03-21T05:36:29;100629.09;;;6.73;93.18
51147;BME280;37207;53.060;18.726;2023-03-21T05:39:00;100635.89;;;6.73;93.28
51147;BME280;37207;53.060;18.726;2023-03-21T05:41:26;100636.33;;;6.72;92.91
51147;BME280;37207;53.060;18.726;2023-03-21T05:43:52;100640.14;;;6.71;92.95
51147;BME280;37207;53.060;18.726;2023-03-21T05:46:18;100639.30;;;6.70;93.01
51147;BME280;37207;53.060;18.726;2023-03-21T05:48:44;100641.66;;;6.70;93.06
51147;BME280;37207;53.060;18.726;2023-03-21T05:51:13;100640.60;;;6.71;93.10
51147;BME280;37207;53.060;18.726;2023-03-21T05:53:39;100644.93;;;6.73;93.34
51147;BME280;37207;53.060;18.726;2023-03-21T05:56:06;100644.33;;;6.74;93.44
51147;BME280;37207;53.060;18.726;2023-03-21T05:58:43;100649.39;;;6.75;93.31
51147;BME280;37207;53.060;18.726;2023-03-21T06:01:09;100649.73;;;6.76;93.39
51147;BME280;37207;53.060;18.726;2023-03-21T06:03:35;100648.60;;;6.76;93.34
51147;BME280;37207;53.060;18.726;2023-03-21T06:06:09;100648.94;;;6.78;93.35
51147;BME280;37207;53.060;18.726;2023-03-21T06:08:38;100649.70;;;6.78;93.47
51147;BME280;37207;53.060;18.726;2023-03-21T06:11:08;100646.34;;;6.79;93.45
51147;BME280;37207;53.060;18.726;2023-03-21T06:13:37;100649.39;;;6.82;93.60
51147;BME280;37207;53.060;18.726;2023-03-21T06:16:03;100653.79;;;6.83;93.35
51147;BME280;37207;53.060;18.726;2023-03-21T06:18:31;100661.84;;;6.84;93.39
51147;BME280;37207;53.060;18.726;2023-03-21T06:21:07;100668.52;;;6.84;93.38
51147;BME280;37207;53.060;18.726;2023-03-21T06:23:33;100667.05;;;6.83;93.35
51147;BME280;37207;53.060;18.726;2023-03-21T06:25:59;100667.61;;;6.81;93.46
51147;BME280;37207;53.060;18.726;2023-03-21T06:28:25;100670.14;;;6.79;93.41
51147;BME280;37207;53.060;18.726;2023-03-21T06:30:51;100668.95;;;6.79;93.56
51147;BME280;37207;53.060;18.726;2023-03-21T06:33:20;100668.09;;;6.81;93.71
51147;BME280;37207;53.060;18.726;2023-03-21T06:35:51;100672.67;;;6.84;93.67
51147;BME280;37207;53.060;18.726;2023-03-21T06:38:18;100673.20;;;6.88;93.61
51147;BME280;37207;53.060;18.726;2023-03-21T06:40:47;100670.93;;;6.93;93.69
51147;BME280;37207;53.060;18.726;2023-03-21T06:43:14;100673.55;;;7.00;93.68
51147;BME280;37207;53.060;18.726;2023-03-21T06:45:42;100674.48;;;7.04;93.74
51147;BME280;37207;53.060;18.726;2023-03-21T06:48:09;100679.41;;;7.10;93.78
51147;BME280;37207;53.060;18.726;2023-03-21T06:50:47;100672.46;;;7.15;93.67
51147;BME280;37207;53.060;18.726;2023-03-21T06:53:14;100671.71;;;7.20;93.51
51147;BME280;37207;53.060;18.726;2023-03-21T06:56:00;100680.49;;;7.26;93.25
51147;BME280;37207;53.060;18.726;2023-03-21T06:58:26;100688.16;;;7.29;93.24
51147;BME280;37207;53.060;18.726;2023-03-21T07:00:52;100691.46;;;7.31;93.18
51147;BME280;37207;53.060;18.726;2023-03-21T07:03:18;100691.12;;;7.30;93.02
51147;BME280;37207;53.060;18.726;2023-03-21T07:05:44;100697.80;;;7.28;92.89
51147;BME280;37207;53.060;18.726;2023-03-21T07:08:11;100699.81;;;7.25;92.76
51147;BME280;37207;53.060;18.726;2023-03-21T07:10:43;100702.02;;;7.22;92.84
51147;BME280;37207;53.060;18.726;2023-03-21T07:13:09;100703.02;;;7.20;92.96
51147;BME280;37207;53.060;18.726;2023-03-21T07:15:52;100704.01;;;7.23;93.01
51147;BME280;37207;53.060;18.726;2023-03-21T07:18:19;100709.02;;;7.28;93.07
51147;BME280;37207;53.060;18.726;2023-03-21T07:20:46;100705.08;;;7.34;93.00
51147;BME280;37207;53.060;18.726;2023-03-21T07:23:17;100708.46;;;7.41;93.17
51147;BME280;37207;53.060;18.726;2023-03-21T07:25:43;100708.71;;;7.48;92.95
51147;BME280;37207;53.060;18.726;2023-03-21T07:28:09;100709.77;;;7.54;92.79
51147;BME280;37207;53.060;18.726;2023-03-21T07:30:35;100712.38;;;7.57;92.89
51147;BME280;37207;53.060;18.726;2023-03-21T07:33:02;100711.04;;;7.61;92.85
51147;BME280;37207;53.060;18.726;2023-03-21T07:35:29;100713.34;;;7.67;92.64
51147;BME280;37207;53.060;18.726;2023-03-21T07:37:55;100715.59;;;7.71;92.42
51147;BME280;37207;53.060;18.726;2023-03-21T07:40:21;100718.64;;;7.77;92.64
51147;BME280;37207;53.060;18.726;2023-03-21T07:42:47;100715.48;;;7.83;92.43
51147;BME280;37207;53.060;18.726;2023-03-21T07:45:19;100714.50;;;7.88;92.43
51147;BME280;37207;53.060;18.726;2023-03-21T07:47:50;100715.48;;;7.89;91.89
51147;BME280;37207;53.060;18.726;2023-03-21T07:50:16;100716.30;;;7.90;91.72
51147;BME280;37207;53.060;18.726;2023-03-21T07:52:43;100716.20;;;7.93;91.61
51147;BME280;37207;53.060;18.726;2023-03-21T07:55:09;100718.16;;;7.96;91.39
51147;BME280;37207;53.060;18.726;2023-03-21T07:57:36;100717.90;;;8.01;91.42
51147;BME280;37207;53.060;18.726;2023-03-21T08:00:03;100722.44;;;8.06;91.22
51147;BME280;37207;53.060;18.726;2023-03-21T08:02:38;100721.11;;;8.11;91.09
51147;BME280;37207;53.060;18.726;2023-03-21T08:05:04;100727.25;;;8.16;90.97
51147;BME280;37207;53.060;18.726;2023-03-21T08:07:30;100729.17;;;8.16;90.54
51147;BME280;37207;53.060;18.726;2023-03-21T08:09:57;100730.27;;;8.14;90.04
51147;BME280;37207;53.060;18.726;2023-03-21T08:12:23;100734.63;;;8.11;89.91
51147;BME280;37207;53.060;18.726;2023-03-21T08:14:49;100731.00;;;8.13;90.29
51147;BME280;37207;53.060;18.726;2023-03-21T08:17:15;100736.02;;;8.16;89.95
51147;BME280;37207;53.060;18.726;2023-03-21T08:19:41;100733.90;;;8.20;89.97
51147;BME280;37207;53.060;18.726;2023-03-21T08:22:07;100734.41;;;8.24;89.98
51147;BME280;37207;53.060;18.726;2023-03-21T08:24:32;100738.09;;;8.31;89.80
51147;BME280;37207;53.060;18.726;2023-03-21T08:27:00;100742.09;;;8.42;89.78
51147;BME280;37207;53.060;18.726;2023-03-21T08:29:26;100744.82;;;8.59;89.61
51147;BME280;37207;53.060;18.726;2023-03-21T08:31:52;100742.45;;;8.80;88.69
51147;BME280;37207;53.060;18.726;2023-03-21T08:34:18;100742.30;;;8.90;87.82
51147;BME280;37207;53.060;18.726;2023-03-21T08:36:44;100743.33;;;8.91;88.35
51147;BME280;37207;53.060;18.726;2023-03-21T08:39:11;100746.33;;;8.97;88.55
51147;BME280;37207;53.060;18.726;2023-03-21T08:41:37;100749.16;;;9.00;87.93
51147;BME280;37207;53.060;18.726;2023-03-21T08:44:04;100749.69;;;8.98;87.31
51147;BME280;37207;53.060;18.726;2023-03-21T08:46:32;100752.63;;;8.94;86.36
51147;BME280;37207;53.060;18.726;2023-03-21T08:48:58;100748.66;;;9.21;85.77
51147;BME280;37207;53.060;18.726;2023-03-21T08:51:24;100754.34;;;10.76;85.00
51147;BME280;37207;53.060;18.726;2023-03-21T08:53:49;100752.15;;;13.15;81.24
51147;BME280;37207;53.060;18.726;2023-03-21T08:56:16;100751.42;;;15.37;77.36
51147;BME280;37207;53.060;18.726;2023-03-21T08:58:43;100754.25;;;16.30;74.14
51147;BME280;37207;53.060;18.726;2023-03-21T09:01:10;100753.92;;;15.65;71.53
51147;BME280;37207;53.060;18.726;2023-03-21T09:03:41;100758.55;;;14.81;73.20
51147;BME280;37207;53.060;18.726;2023-03-21T09:06:08;100762.41;;;14.10;73.56
51147;BME280;37207;53.060;18.726;2023-03-21T09:08:37;100767.02;;;13.32;73.13
51147;BME280;37207;53.060;18.726;2023-03-21T09:11:03;100767.42;;;12.71;74.13
51147;BME280;37207;53.060;18.726;2023-03-21T09:13:29;100773.95;;;12.19;73.39
51147;BME280;37207;53.060;18.726;2023-03-21T09:15:55;100767.58;;;11.74;74.45
51147;BME280;37207;53.060;18.726;2023-03-21T09:18:26;100768.41;;;11.42;75.32
51147;BME280;37207;53.060;18.726;2023-03-21T09:21:10;100772.27;;;11.14;75.52
51147;BME280;37207;53.060;18.726;2023-03-21T09:23:40;100772.19;;;11.30;75.65
51147;BME280;37207;53.060;18.726;2023-03-21T09:26:07;100773.45;;;11.87;75.36
51147;BME280;37207;53.060;18.726;2023-03-21T09:28:35;100773.14;;;11.91;75.07
51147;BME280;37207;53.060;18.726;2023-03-21T09:31:04;100777.48;;;11.93;75.26
51147;BME280;37207;53.060;18.726;2023-03-21T09:33:31;100778.63;;;11.86;74.62
51147;BME280;37207;53.060;18.726;2023-03-21T09:35:57;100777.59;;;12.01;73.42
51147;BME280;37207;53.060;18.726;2023-03-21T09:38:26;100779.13;;;11.99;73.08
51147;BME280;37207;53.060;18.726;2023-03-21T09:44:08;100778.94;;;12.11;73.14
51147;BME280;37207;53.060;18.726;2023-03-21T09:49:26;100777.21;;;11.91;73.69
51147;BME280;37207;53.060;18.726;2023-03-21T09:52:02;100773.96;;;12.34;75.74
51147;BME280;37207;53.060;18.726;2023-03-21T09:54:35;100772.34;;;12.98;73.75
51147;BME280;37207;53.060;18.726;2023-03-21T09:57:24;100772.23;;;13.31;72.01
51147;BME280;37207;53.060;18.726;2023-03-21T09:59:52;100772.98;;;13.43;68.35
51147;BME280;37207;53.060;18.726;2023-03-21T10:05:30;100774.12;;;13.10;68.13
51147;BME280;37207;53.060;18.726;2023-03-21T10:08:19;100773.35;;;12.77;69.26
51147;BME280;37207;53.060;18.726;2023-03-21T10:10:49;100778.45;;;12.43;69.12
51147;BME280;37207;53.060;18.726;2023-03-21T10:13:21;100778.52;;;12.04;68.62
51147;BME280;37207;53.060;18.726;2023-03-21T10:15:47;100775.61;;;11.67;69.84
51147;BME280;37207;53.060;18.726;2023-03-21T10:18:26;100776.04;;;11.40;70.17
51147;BME280;37207;53.060;18.726;2023-03-21T10:20:54;100783.63;;;11.22;71.18
51147;BME280;37207;53.060;18.726;2023-03-21T10:23:25;100780.42;;;11.14;71.43
51147;BME280;37207;53.060;18.726;2023-03-21T10:26:00;100780.55;;;11.13;71.87
51147;BME280;37207;53.060;18.726;2023-03-21T10:28:32;100783.04;;;11.22;71.63
51147;BME280;37207;53.060;18.726;2023-03-21T10:31:02;100780.74;;;11.48;71.43
51147;BME280;37207;53.060;18.726;2023-03-21T10:33:48;100776.23;;;13.11;68.30
51147;BME280;37207;53.060;18.726;2023-03-21T10:36:21;100779.04;;;15.36;66.21
51147;BME280;37207;53.060;18.726;2023-03-21T10:39:04;100778.41;;;16.19;64.32
51147;BME280;37207;53.060;18.726;2023-03-21T10:41:31;100777.65;;;16.95;61.51
51147;BME280;37207;53.060;18.726;2023-03-21T10:44:13;100768.84;;;17.29;61.98
51147;BME280;37207;53.060;18.726;2023-03-21T10:46:56;100769.39;;;16.90;60.27
51147;BME280;37207;53.060;18.726;2023-03-21T10:49:22;100766.55;;;16.32;60.93
51147;BME280;37207;53.060;18.726;2023-03-21T10:51:50;100764.94;;;15.84;61.73
51147;BME280;37207;53.060;18.726;2023-03-21T10:54:18;100767.80;;;15.29;61.55
51147;BME280;37207;53.060;18.726;2023-03-21T10:56:56;100770.80;;;14.77;62.55
51147;BME280;37207;53.060;18.726;2023-03-21T10:59:24;100770.14;;;14.35;63.42
51147;BME280;37207;53.060;18.726;2023-03-21T11:01:54;100765.91;;;14.00;63.39
51147;BME280;37207;53.060;18.726;2023-03-21T11:04:25;100765.60;;;13.73;63.63
51147;BME280;37207;53.060;18.726;2023-03-21T11:07:02;100766.88;;;13.52;64.07
51147;BME280;37207;53.060;18.726;2023-03-21T11:09:48;100769.57;;;13.33;64.37
51147;BME280;37207;53.060;18.726;2023-03-21T11:12:17;100774.83;;;13.21;64.66
51147;BME280;37207;53.060;18.726;2023-03-21T11:14:46;100774.97;;;13.21;64.98
51147;BME280;37207;53.060;18.726;2023-03-21T11:19:49;100776.03;;;13.21;64.74
51147;BME280;37207;53.060;18.726;2023-03-21T11:22:19;100774.02;;;13.12;64.39
51147;BME280;37207;53.060;18.726;2023-03-21T11:24:51;100776.20;;;13.04;63.75
51147;BME280;37207;53.060;18.726;2023-03-21T11:27:17;100773.46;;;12.89;63.70
51147;BME280;37207;53.060;18.726;2023-03-21T11:29:48;100775.85;;;12.73;63.79
51147;BME280;37207;53.060;18.726;2023-03-21T11:32:23;100772.61;;;12.60;63.89
51147;BME280;37207;53.060;18.726;2023-03-21T11:35:14;100767.41;;;12.48;64.41
51147;BME280;37207;53.060;18.726;2023-03-21T11:37:43;100769.31;;;12.46;64.70
51147;BME280;37207;53.060;18.726;2023-03-21T11:40:23;100765.37;;;12.65;65.16
51147;BME280;37207;53.060;18.726;2023-03-21T11:42:52;100766.25;;;13.22;65.68
51147;BME280;37207;53.060;18.726;2023-03-21T11:47:51;100768.67;;;13.23;63.73
51147;BME280;37207;53.060;18.726;2023-03-21T11:50:24;100763.23;;;13.43;63.68
51147;BME280;37207;53.060;18.726;2023-03-21T11:53:14;100759.61;;;14.33;63.29
51147;BME280;37207;53.060;18.726;2023-03-21T12:02:06;100759.54;;;17.30;58.47
51147;BME280;37207;53.060;18.726;2023-03-21T12:07:08;100756.44;;;16.39;58.02
51147;BME280;37207;53.060;18.726;2023-03-21T12:12:53;100753.71;;;17.14;57.31
51147;BME280;37207;53.060;18.726;2023-03-21T12:15:30;100748.29;;;16.69;57.80
51147;BME280;37207;53.060;18.726;2023-03-21T12:18:05;100747.58;;;16.24;58.01
51147;BME280;37207;53.060;18.726;2023-03-21T12:28:47;100738.40;;;14.64;57.60
51147;BME280;37207;53.060;18.726;2023-03-21T12:39:31;100736.96;;;16.48;55.99
51147;BME280;37207;53.060;18.726;2023-03-21T12:44:59;100735.24;;;19.20;50.60
51147;BME280;37207;53.060;18.726;2023-03-21T12:47:30;100728.73;;;19.95;49.97
51147;BME280;37207;53.060;18.726;2023-03-21T12:50:14;100724.39;;;20.19;49.17
51147;BME280;37207;53.060;18.726;2023-03-21T12:52:43;100722.33;;;20.42;48.02
51147;BME280;37207;53.060;18.726;2023-03-21T12:55:25;100719.05;;;20.58;48.56
51147;BME280;37207;53.060;18.726;2023-03-21T12:58:10;100716.52;;;20.01;48.93
51147;BME280;37207;53.060;18.726;2023-03-21T13:00:44;100719.42;;;19.57;48.98
51147;BME280;37207;53.060;18.726;2023-03-21T13:03:19;100713.79;;;19.14;49.76
51147;BME280;37207;53.060;18.726;2023-03-21T13:05:56;100716.95;;;18.44;50.21
51147;BME280;37207;53.060;18.726;2023-03-21T13:10:54;100716.07;;;17.31;51.78
51147;BME280;37207;53.060;18.726;2023-03-21T13:13:42;100717.93;;;16.70;51.98
51147;BME280;37207;53.060;18.726;2023-03-21T13:24:04;100705.87;;;15.68;54.51
51147;BME280;37207;53.060;18.726;2023-03-21T13:26:44;100707.23;;;15.46;54.46
51147;BME280;37207;53.060;18.726;2023-03-21T13:29:32;100708.06;;;15.09;54.75
51147;BME280;37207;53.060;18.726;2023-03-21T13:32:16;100705.38;;;14.78;54.83
51147;BME280;37207;53.060;18.726;2023-03-21T13:34:44;100703.34;;;14.54;55.00
51147;BME280;37207;53.060;18.726;2023-03-21T13:37:14;100701.06;;;14.32;55.16
51147;BME280;37207;53.060;18.726;2023-03-21T13:39:44;100703.48;;;14.16;55.56
51147;BME280;37207;53.060;18.726;2023-03-21T13:42:20;100695.97;;;14.04;55.69
51147;BME280;37207;53.060;18.726;2023-03-21T13:44:52;100697.35;;;13.96;56.08
51147;BME280;37207;53.060;18.726;2023-03-21T13:47:39;100694.53;;;13.84;55.71
51147;BME280;37207;53.060;18.726;2023-03-21T13:53:23;100689.67;;;13.43;56.07
51147;BME280;37207;53.060;18.726;2023-03-21T13:56:07;100690.29;;;13.20;56.48
51147;BME280;37207;53.060;18.726;2023-03-21T13:58:38;100685.34;;;13.03;57.08
51147;BME280;37207;53.060;18.726;2023-03-21T14:06:30;100687.02;;;12.62;57.24
51147;BME280;37207;53.060;18.726;2023-03-21T14:08:57;100688.27;;;12.50;57.59
51147;BME280;37207;53.060;18.726;2023-03-21T14:11:23;100686.69;;;12.36;57.69
51147;BME280;37207;53.060;18.726;2023-03-21T14:13:52;100683.73;;;12.27;58.20
51147;BME280;37207;53.060;18.726;2023-03-21T14:16:19;100681.41;;;12.18;58.34
51147;BME280;37207;53.060;18.726;2023-03-21T14:18:53;100682.92;;;12.10;58.53
51147;BME280;37207;53.060;18.726;2023-03-21T14:21:30;100682.67;;;12.04;58.75
51147;BME280;37207;53.060;18.726;2023-03-21T14:24:02;100679.57;;;11.99;58.95
51147;BME280;37207;53.060;18.726;2023-03-21T14:26:34;100679.52;;;11.99;59.65
51147;BME280;37207;53.060;18.726;2023-03-21T14:29:03;100679.46;;;11.99;59.59
51147;BME280;37207;53.060;18.726;2023-03-21T14:31:31;100675.45;;;11.92;59.47
51147;BME280;37207;53.060;18.726;2023-03-21T14:33:58;100674.30;;;11.87;60.00
51147;BME280;37207;53.060;18.726;2023-03-21T14:36:28;100670.54;;;11.87;60.52
51147;BME280;37207;53.060;18.726;2023-03-21T14:41:31;100668.91;;;11.84;60.48
51147;BME280;37207;53.060;18.726;2023-03-21T14:47:05;100665.10;;;11.87;61.21
51147;BME280;37207;53.060;18.726;2023-03-21T14:49:34;100663.90;;;11.83;60.85
51147;BME280;37207;53.060;18.726;2023-03-21T14:54:47;100658.30;;;11.77;61.03
51147;BME280;37207;53.060;18.726;2023-03-21T14:57:19;100655.50;;;11.75;61.29
51147;BME280;37207;53.060;18.726;2023-03-21T14:59:47;100654.16;;;11.73;61.74
51147;BME280;37207;53.060;18.726;2023-03-21T15:02:18;100653.80;;;11.73;61.72
51147;BME280;37207;53.060;18.726;2023-03-21T15:04:49;100656.02;;;11.73;62.05
51147;BME280;37207;53.060;18.726;2023-03-21T15:07:30;100658.23;;;11.72;62.04
51147;BME280;37207;53.060;18.726;2023-03-21T15:10:04;100655.29;;;11.64;62.07
51147;BME280;37207;53.060;18.726;2023-03-21T15:12:31;100658.42;;;11.59;62.46
51147;BME280;37207;53.060;18.726;2023-03-21T15:14:59;100656.30;;;11.56;62.37